North Myrtle Beach, South Carolina
Current Conditions -  °F | °C
As of 10:53 PM on Saturday 25 Oct 2014 (Local Time) from KCRE Reporting Station
Clear Clear  
Wind Chill: 50°   Ceiling: Unl
Heat Index: 50°   Visibility: 10mi
Dew Point: 47°   Wind: 5mph
Humidity: 89%   Direction: 270°W
Pressure: 29.95"   Gusts: NA
Location:  33.83°N, 78.68°W
Report Text: KCRE 260253Z 27004KT 10SM CLR 10/08 A2995 RMK AO1 SLP141 T01000083 52001
Loading
Personal Weather Stations






























Interactive Weather Map
Tropical Storm Tracking
New forecast layout! Learn more

10-Day Weather Forecast

Advertisements
Track Severe Weather on mobile